Flight Track Log - Related Links

Times and Time Zones

All times are in EDT time to prevent confusion due to time zone crossing. See the SAS506 flight status page for this flight to view local times or setup timezone preferences in your user account.

Time Position Orientation Groundspeed Altitude Reporting Facility
EDT Latitude Longitude Course Direction KTS MPH feet Rate Location/Type
Mon 12:17:23 PM 51.4650 -0.4770 90° East 158 182 500  Level FlightAware ADS-B
Mon 12:17:34 PM 51.4648 -0.4412 90° East 148 170 1,200 2,710 Climbing FlightAware ADS-B
Mon 12:17:54 PM 51.4655 -0.4155 88° East 158 182 1,900 1,929 Climbing FlightAware ADS-B
Mon 12:18:02 PM 51.4686 -0.4063 62° Northeast 170 196 2,100 1,350 Climbing FlightAware ADS-B
Mon 12:18:34 PM 51.4858 -0.3731 50° Northeast 210 242 2,800 1,385 Climbing FlightAware ADS-B
Mon 12:18:54 PM 51.5000 -0.3466 49° Northeast 246 283 3,300 2,167 Climbing FlightAware ADS-B
Mon 12:19:10 PM 51.5130 -0.3217 50° Northeast 256 295 4,100 3,360 Climbing FlightAware ADS-B
Mon 12:19:19 PM 51.5196 -0.3091 50° Northeast 258 297 4,700 3,000 Climbing FlightAware ADS-B
Mon 12:19:34 PM 51.5282 -0.2841 61° Northeast 258 297 5,300 2,786 Climbing FlightAware ADS-B
Mon 12:19:47 PM 51.5328 -0.2596 73° East 272 313 6,000 1,765 Climbing FlightAware ADS-B
Mon 12:20:08 PM 51.5395 -0.2164 76° East 302 348 6,300 1,463 Climbing FlightAware ADS-B
Mon 12:20:28 PM 51.5461 -0.1733 76° East 318 366 7,000 2,700 Climbing FlightAware ADS-B
Mon 12:20:48 PM 51.5529 -0.1264 77° East 320 368 8,100 3,257 Climbing FlightAware ADS-B
Mon 12:21:03 PM 51.5566 -0.0918 80° East 325 374 8,900 2,813 Climbing FlightAware ADS-B
Mon 12:21:20 PM 51.5601 -0.0534 82° East 329 379 9,600 2,043 Climbing FlightAware ADS-B
Mon 12:21:50 PM 51.5671 0.0234 82° East 357 411 10,500 2,400 Climbing FlightAware ADS-B
Mon 12:22:20 PM 51.5750 0.1044 81° East 358 412 12,000 3,319 Climbing FlightAware ADS-B
Mon 12:22:37 PM 51.5598 -0.0562 261° West 361 415 13,100 2,400 Climbing FlightAware ADS-B
Mon 12:23:10 PM 51.5869 0.2312 81° East 374 430 14,000 1,256 Climbing FlightAware ADS-B
Mon 12:23:20 PM 51.5902 0.2546 77° East 385 443 14,000  Level FlightAware ADS-B
Mon 12:23:30 PM 51.5999 0.2871 64° Northeast 390 449 14,000  Level FlightAware ADS-B
Mon 12:23:40 PM 51.6102 0.3076 51° Northeast 393 452 14,000 300 Level FlightAware ADS-B
Mon 12:23:50 PM 51.6264 0.3283 38° Northeast 396 456 14,100 1,200 Climbing FlightAware ADS-B
Mon 12:24:25 PM 51.6815 0.3818 31° Northeast 399 459 14,900 1,662 Climbing FlightAware ADS-B
Mon 12:24:55 PM 51.7280 0.4278 32° Northeast 411 473 15,900 1,869 Climbing FlightAware ADS-B
Mon 12:25:26 PM 51.7793 0.4794 32° Northeast 421 484 16,800 2,108 Climbing FlightAware ADS-B
Mon 12:25:32 PM 51.7744 0.4736 216° Southwest 420 483 17,200 3,750 Climbing FlightAware ADS-B
Mon 12:25:42 PM 51.8003 0.5149 45° Northeast 410 472 17,800 3,789 Climbing FlightAware ADS-B
Mon 12:25:51 PM 51.8092 0.5384 58° Northeast 405 466 18,400 2,182 Climbing FlightAware ADS-B
Mon 12:26:04 PM 51.8092 0.5384 58° Northeast 405 466 18,600 1,200 Climbing FlightAware ADS-B
Mon 12:26:36 PM 51.8504 0.6619 62° Northeast 428 493 19,300 1,676 Climbing FlightAware ADS-B
Mon 12:27:12 PM 51.8840 0.7635 62° Northeast 430 495 20,500 1,946 Climbing FlightAware ADS-B
Mon 12:27:50 PM 51.9156 0.8756 65° Northeast 434 499 21,700 1,765 Climbing FlightAware ADS-B
Mon 12:28:20 PM 51.9381 0.9673 68° East 441 507 22,500 1,500 Climbing FlightAware ADS-B
Mon 12:28:38 PM 51.9427 0.9859 68° East 448 516 22,900 1,125 Climbing FlightAware ADS-B
Mon 12:29:08 PM 51.9723 1.1046 68° East 450 518 23,400 871 Climbing FlightAware ADS-B
Mon 12:29:40 PM 52.0002 1.2167 68° East 466 536 23,800 1,161 Climbing FlightAware ADS-B
Mon 12:30:10 PM 52.0249 1.3158 68° East 468 539 24,600 1,400 Climbing FlightAware ADS-B
Mon 12:30:40 PM 52.0422 1.3873 68° East 471 542 25,200 1,200 Climbing FlightAware ADS-B
Mon 12:31:10 PM 52.0710 1.5095 69° East 475 547 25,800 1,619 Climbing FlightAware ADS-B
Mon 12:31:43 PM 52.0972 1.6220 69° East 468 539 26,900 1,902 Climbing FlightAware UK
Mon 12:31:51 PM 52.1030 1.6469 69° East 469 540 27,100 1,429 Climbing FlightAware ADS-B
Mon 12:32:25 PM 52.1337 1.7567 69° East 466 536 27,900 1,500 Climbing FlightAware UK
Mon 12:32:39 PM 52.1471 1.8017 69° East 468 539 28,300 1,364 Climbing FlightAware ADS-B
Mon 12:33:09 PM 52.1746 1.8970 65° Northeast 471 542 28,900 1,200 Climbing FlightAware ADS-B
Mon 12:33:49 PM 52.2113 2.0250 65° Northeast 462 532 29,700 1,600 Climbing FlightAware UK
Mon 12:33:54 PM 52.2082 2.0134 65° Northeast 468 539 30,100 2,333 Climbing FlightAware ADS-B
Mon 12:34:25 PM 52.2436 2.1393 65° Northeast 456 525 31,100 1,875 Climbing FlightAware UK
Mon 12:34:26 PM 52.2430 2.1370 65° Northeast 457 526 31,100 1,091 Level FlightAware ADS-B
Mon 12:34:58 PM 52.2620 2.2480 74° East 463 533 31,700 1,174 Climbing FlightAware ADS-B
Mon 12:35:12 PM 52.2660 2.2739 76° East 463 533 32,000 896 Climbing FlightAware ADS-B
Mon 12:36:05 PM 52.2858 2.4053 76° East 472 543 32,700 1,021 Climbing FlightAware ADS-B
Mon 12:36:46 PM 52.3099 2.5642 76° East 469 540 33,600 1,231 Climbing FlightAware ADS-B
Mon 12:37:23 PM 52.3360 2.7430 76° East 467 537 34,300 1,317 Climbing FlightAware ADS-B
Mon 12:37:27 PM 52.3287 2.6906 257° West 467 537 34,500 1,263 Climbing FlightAware ADS-B
Mon 12:38:01 PM 52.3564 2.8775 257° West 446 513 35,100 984 Climbing FlightAware UK
Mon 12:38:28 PM 52.3690 2.9670 257° West 461 531 35,500 706 Climbing FlightAware ADS-B
Mon 12:39:09 PM 52.3900 3.1060 76° East 464 534 35,900 590 Climbing FlightAware ADS-B
Mon 12:39:29 PM 52.4090 3.1690 64° Northeast 460 529 36,100 1,102 Climbing FlightAware ADS-B
Mon 12:39:58 PM 52.4440 3.2470 54° Northeast 447 514 36,800 761 Climbing FlightAware ADS-B
Mon 12:40:40 PM 52.4920 3.3570 54° Northeast 434 499 37,000 158 Climbing FlightAware ADS-B
Mon 12:41:14 PM 52.5330 3.4490 54° Northeast 439 505 37,000  Level FlightAware ADS-B
Mon 12:41:51 PM 52.5770 3.5500 54° Northeast 442 509 37,000  Level FlightAware ADS-B
Mon 12:42:20 PM 52.6110 3.6280 54° Northeast 443 510 37,000  Level FlightAware ADS-B
Mon 12:42:58 PM 52.6570 3.7340 54° Northeast 446 513 37,000  Level FlightAware ADS-B
Mon 12:43:33 PM 52.6980 3.8300 55° Northeast 447 514 37,000  Level FlightAware ADS-B
Mon 12:44:01 PM 52.7320 3.9070 54° Northeast 448 516 37,000  Level FlightAware ADS-B
Mon 12:44:35 PM 52.7680 3.9920 55° Northeast 448 516 37,000  Level FlightAware ADS-B
Mon 12:45:12 PM 52.8180 4.1080 54° Northeast 448 516 37,000  Level FlightAware ADS-B
Mon 12:45:44 PM 52.8560 4.1970 55° Northeast 447 514 37,000  Level FlightAware ADS-B
Mon 12:46:19 PM 52.8988 4.2975 55° Northeast 450 518 37,000  Level FlightAware UK
Mon 12:46:24 PM 52.9030 4.3080 55° Northeast 446 513 37,000  Level FlightAware ADS-B
Mon 12:46:58 PM 52.9440 4.4040 55° Northeast 445 512 37,000  Level FlightAware ADS-B
Mon 12:47:30 PM 52.9790 4.4890 56° Northeast 446 513 37,000  Level FlightAware ADS-B
Mon 12:48:05 PM 53.0170 4.5800 55° Northeast 446 513 37,000  Level FlightAware ADS-B
Mon 12:48:42 PM 53.0640 4.6910 55° Northeast 446 513 37,000  Level FlightAware ADS-B
Mon 12:49:12 PM 53.1000 4.7770 55° Northeast 446 513 37,000  Level FlightAware ADS-B
Mon 12:49:49 PM 53.1420 4.8780 55° Northeast 445 512 37,000  Level FlightAware ADS-B
Mon 12:49:50 PM 53.1455 4.8872 55° Northeast 450 518 37,000  Level FlightAware UK
Mon 12:50:28 PM 53.1890 4.9920 55° Northeast 444 511 37,000  Level FlightAware ADS-B
Mon 12:50:56 PM 53.2200 5.0670 55° Northeast 444 511 37,000  Level FlightAware ADS-B
Mon 12:51:37 PM 53.2680 5.1840 56° Northeast 446 513 37,000  Level FlightAware ADS-B (KAPA)
Mon 12:52:14 PM 53.3130 5.2940 56° Northeast 447 514 37,000  Level FlightAware ADS-B (KAPA)
Mon 12:52:45 PM 53.3480 5.3810 56° Northeast 447 514 37,000  Level FlightAware ADS-B (KAPA)
Mon 12:53:22 PM 53.3920 5.4890 56° Northeast 447 514 37,000  Level FlightAware ADS-B (KAPA)
Mon 12:53:57 PM 53.4310 5.5850 56° Northeast 449 517 37,000  Level FlightAware ADS-B (KAPA)
Mon 12:54:30 PM 53.4700 5.6830 56° Northeast 449 517 37,000  Level FlightAware ADS-B (KAPA)
Mon 12:54:32 PM 53.4713 5.6898 56° Northeast 450 518 37,000  Level FlightAware UK
Mon 12:55:01 PM 53.5060 5.7720 56° Northeast 449 517 37,000  Level FlightAware ADS-B (KAPA)
Mon 12:55:41 PM 53.5520 5.8890 56° Northeast 447 514 37,000  Level FlightAware ADS-B (KAPA)
Mon 12:56:18 PM 53.5940 5.9950 56° Northeast 447 514 37,000  Level FlightAware ADS-B (KAPA)
Mon 12:56:53 PM 53.6340 6.0960 56° Northeast 445 512 37,000  Level FlightAware ADS-B (KAPA)
Mon 12:57:03 PM 53.6455 6.1242 55° Northeast 445 512 37,000  Level FlightAware ADS-B
Mon 12:57:35 PM 53.6820 6.2168 56° Northeast 444 511 37,000  Level FlightAware ADS-B
Mon 12:58:27 PM 53.7367 6.3568 56° Northeast 444 511 37,000  Level FlightAware ADS-B
Mon 12:58:59 PM 53.7755 6.4560 57° Northeast 444 511 37,000  Level FlightAware ADS-B
Mon 12:59:31 PM 53.8129 6.5522 57° Northeast 446 513 37,000 -87 Level FlightAware ADS-B
Mon 01:00:08 PM 53.8537 6.6605 57° Northeast 450 518 36,900  Descending FlightAware UK
Mon 01:00:24 PM 53.8720 6.7060 57° Northeast 445 512 37,000 122 Climbing FlightAware ADS-B (KAPA)
Mon 01:00:57 PM 53.9096 6.8030 57° Northeast 446 513 37,000  Level FlightAware ADS-B
Mon 01:01:33 PM 53.9500 6.9080 57° Northeast 445 512 37,000  Level FlightAware ADS-B (KAPA)
Mon 01:01:37 PM 53.9536 6.9181 59° Northeast 446 513 37,000  Level FlightAware ADS-B
Mon 01:02:09 PM 53.9872 7.0061 57° Northeast 444 511 37,000  Level FlightAware ADS-B
Mon 01:02:39 PM 54.0230 7.1010 57° Northeast 443 510 37,000  Level FlightAware ADS-B (KAPA)
Mon 01:03:12 PM 54.0580 7.1930 57° Northeast 441 507 37,000  Level FlightAware ADS-B (KAPA)
Mon 01:03:50 PM 54.1000 7.3060 58° Northeast 439 505 37,000  Level FlightAware ADS-B (KAPA)
Mon 01:04:27 PM 54.1410 7.4130 57° Northeast 438 504 37,000  Level FlightAware ADS-B (KAPA)
Mon 01:04:58 PM 54.1720 7.4970 58° Northeast 438 504 37,000  Level FlightAware ADS-B (KAPA)
Mon 01:05:34 PM 54.2003 7.5725 57° Northeast 437 503 37,000  Level FlightAware ADS-B
Mon 01:06:16 PM 54.2598 7.7329 58° Northeast 436 502 37,000  Level FlightAware ADS-B
Mon 01:06:51 PM 54.2969 7.8331 58° Northeast 436 502 37,000  Level FlightAware ADS-B
Mon 01:07:27 PM 54.3350 7.9360 58° Northeast 435 501 37,000  Level FlightAware ADS-B
Mon 01:07:41 PM 54.3495 7.9764 58° Northeast 437 503 37,000  Level FlightAware ADS-B
Mon 01:08:26 PM 54.3400 7.9504 238° Southwest 437 503 37,000  Level FlightAware ADS-B
Mon 01:09:07 PM 54.4301 8.1979 58° Northeast 438 504 37,000  Level FlightAware ADS-B
Mon 01:09:38 PM 54.4455 8.2406 58° Northeast 439 505 37,000  Level FlightAware ADS-B
Mon 01:10:22 PM 54.4991 8.3886 58° Northeast 439 505 37,000  Level FlightAware ADS-B
Mon 01:10:52 PM 54.5531 8.5387 58° Northeast 439 505 37,000  Level FlightAware ADS-B
Mon 01:11:31 PM 54.5880 8.6360 58° Northeast 438 504 37,000  Level FlightAware ADS-B
Mon 01:11:45 PM 54.6007 8.6725 59° Northeast 437 503 37,000  Level FlightAware ADS-B
Mon 01:12:37 PM 54.6641 8.8521 59° Northeast 435 501 37,000  Level FlightAware ADS-B
Mon 01:13:08 PM 54.6940 8.9371 59° Northeast 434 499 37,000  Level FlightAware ADS-B
Mon 01:13:14 PM 54.7033 8.9636 59° Northeast 469 540 37,000  Level FlightAware ADS-B
Mon 01:13:47 PM 54.7361 9.0560 58° Northeast 431 496 37,000  Level FlightAware ADS-B
Mon 01:14:19 PM 54.7668 9.1430 59° Northeast 429 494 37,000 -381 Level FlightAware ADS-B
Mon 01:14:50 PM 54.7994 9.2375 59° Northeast 429 494 36,600 -885 Descending FlightAware ADS-B
Mon 01:15:20 PM 54.8318 9.3317 59° Northeast 435 501 36,100 -1,823 Descending FlightAware ADS-B
Mon 01:16:09 PM 54.8825 9.4784 59° Northeast 434 499 34,200 -1,851 Descending FlightAware ADS-B
Mon 01:16:54 PM 54.9280 9.6110 59° Northeast 409 471 33,200 -1,524 Descending FlightAware ADS-B
Mon 01:17:12 PM 54.9416 9.6513 60° Northeast 404 465 32,600 -1,739 Descending FlightAware ADS-B
Mon 01:18:03 PM 54.9920 9.7970 59° Northeast 384 442 31,200 -2,110 Descending FlightAware ADS-B
Mon 01:18:43 PM 55.0290 9.9040 59° Northeast 386 444 29,400 -2,400 Descending FlightAware ADS-B
Mon 01:19:08 PM 55.0434 9.9464 59° Northeast 382 440 28,600 -2,379 Descending FlightAware ADS-B
Mon 01:19:41 PM 55.0804 10.0546 59° Northeast 380 437 27,100 -2,219 Descending FlightAware ADS-B
Mon 01:20:21 PM 55.1156 10.1591 59° Northeast 375 432 25,900 -1,944 Descending FlightAware ADS-B
Mon 01:20:52 PM 55.1338 10.2358 67° East 372 428 24,800 -2,113 Descending FlightAware ADS-B
Mon 01:21:32 PM 55.1598 10.3528 69° East 367 422 23,400 -2,080 Descending FlightAware ADS-B
Mon 01:22:07 PM 55.1820 10.4530 69° East 363 418 22,200 -2,262 Descending FlightAware ADS-B
Mon 01:22:33 PM 55.1982 10.5237 68° East 364 419 21,100 -2,136 Descending FlightAware ADS-B
Mon 01:23:06 PM 55.2184 10.6144 69° East 357 411 20,100 -1,765 Descending FlightAware ADS-B
Mon 01:23:58 PM 55.2484 10.7493 69° East 345 397 18,600 -1,902 Descending FlightAware ADS-B
Mon 01:24:28 PM 55.2657 10.8276 69° East 345 397 17,500 -1,967 Descending FlightAware ADS-B
Mon 01:24:59 PM 55.2833 10.9078 69° East 340 391 16,600 -1,869 Descending FlightAware ADS-B
Mon 01:25:29 PM 55.3007 10.9875 69° East 339 390 15,600 -1,974 Descending FlightAware ADS-B
Mon 01:26:15 PM 55.3258 11.1022 69° East 334 384 14,100 -1,862 Descending FlightAware ADS-B
Mon 01:26:56 PM 55.3480 11.2050 69° East 328 377 12,900 -1,800 Descending FlightAware ADS-B
Mon 01:27:05 PM 55.3507 11.2174 69° East 326 375 12,600 -1,714 Descending FlightAware ADS-B
Mon 01:27:24 PM 55.3614 11.2770 72° East 323 372 12,100 -1,645 Descending FlightAware ADS-B
Mon 01:28:07 PM 55.3703 11.3871 82° East 316 364 10,900 -1,644 Descending FlightAware ADS-B
Mon 01:28:37 PM 55.3754 11.4528 82° East 311 358 10,100 -1,700 Descending FlightAware ADS-B
Mon 01:29:07 PM 55.3819 11.5369 82° East 305 351 9,200 -1,440 Descending FlightAware ADS-B
Mon 01:29:27 PM 55.3860 11.5855 81° East 295 339 8,900 -1,350 Descending FlightAware ADS-B
Mon 01:29:47 PM 55.3899 11.6314 82° East 292 336 8,300 -1,714 Descending FlightAware ADS-B
Mon 01:30:09 PM 55.3942 11.6817 81° East 288 331 7,700 -1,571 Descending FlightAware ADS-B
Mon 01:30:29 PM 55.3980 11.7282 82° East 284 327 7,200 -1,610 Descending FlightAware ADS-B
Mon 01:30:50 PM 55.4018 11.7752 82° East 283 326 6,600 -1,650 Descending FlightAware ADS-B
Mon 01:31:09 PM 55.4055 11.8176 81° East 277 319 6,100 -1,500 Descending FlightAware ADS-B
Mon 01:31:30 PM 55.4101 11.8652 80° East 272 313 5,600 -1,610 Descending FlightAware ADS-B
Mon 01:31:50 PM 55.4145 11.9085 80° East 271 312 5,000 -1,636 Descending FlightAware ADS-B
Mon 01:32:14 PM 55.4192 11.9543 80° East 267 307 4,400 -1,500 Descending FlightAware ADS-B
Mon 01:32:34 PM 55.4235 11.9968 80° East 265 305 3,900 -878 Descending FlightAware ADS-B
Mon 01:32:55 PM 55.4280 12.0447 80° East 268 308 3,800 -267 Descending FlightAware ADS-B
Mon 01:33:19 PM 55.4331 12.0993 81° East 264 304 3,700 -667 Descending FlightAware ADS-B
Mon 01:33:40 PM 55.4368 12.1401 81° East 260 299 3,300 -1,050 Descending FlightAware ADS-B
Mon 01:33:59 PM 55.4407 12.1824 81° East 250 288 3,000 -750 Descending FlightAware ADS-B
Mon 01:34:20 PM 55.4441 12.2215 81° East 237 273 2,800 -286 Descending FlightAware ADS-B
Mon 01:34:41 PM 55.4474 12.2597 81° East 216 249 2,800  Level FlightAware ADS-B
Mon 01:35:01 PM 55.4505 12.2942 81° East 210 242 2,800  Level FlightAware ADS-B
Mon 01:35:21 PM 55.4533 12.3265 81° East 210 242 2,800  Level FlightAware ADS-B
Mon 01:35:41 PM 55.4575 12.3614 78° East 210 242 2,800  Level FlightAware ADS-B
Mon 01:36:01 PM 55.4621 12.3934 76° East 209 241 2,800  Level FlightAware ADS-B
Mon 01:36:22 PM 55.4740 12.4200 52° Northeast 197 227 2,800 -143 Level FlightAware ADS-B
Mon 01:36:43 PM 55.4872 12.4415 43° Northeast 183 211 2,700 -878 Descending FlightAware ADS-B
Mon 01:37:03 PM 55.5002 12.4617 41° Northeast 180 207 2,200 -1,200 Descending FlightAware ADS-B
Mon 01:37:23 PM 55.5114 12.4791 41° Northeast 174 200 1,900 -900 Descending FlightAware ADS-B
Mon 01:37:43 PM 55.5249 12.4998 41° Northeast 168 193 1,600 -923 Descending FlightAware ADS-B
Mon 01:38:02 PM 55.5356 12.5162 41° Northeast 158 182 1,300 -900 Descending FlightAware ADS-B
Mon 01:38:23 PM 55.5468 12.5334 41° Northeast 150 173 1,000 -732 Descending FlightAware ADS-B
Mon 01:38:43 PM 55.5565 12.5484 41° Northeast 136 157 800 -750 Descending FlightAware ADS-B
Mon 01:39:03 PM 55.5654 12.5622 41° Northeast 132 152 500 -818 Descending FlightAware ADS-B
Mon 01:39:27 PM 55.5769 12.5799 41° Northeast 134 154 200 -750 Descending FlightAware ADS-B
Mon 01:40:10 PM 55.5970 12.6110 41° Northeast 132 152 -279 Descending FlightAware ADS-B

Login

Don't have an account? Register now (free) for customized features, flight alerts, and more!